Time,TemperatureF,DewpointF,PressureIn,WindDirection,WindDirectionDegrees,WindSpeedMPH,WindSpeedGustMPH,Humidity,HourlyPrecipIn,Conditions,Clouds,dailyrainin,SolarRadiationWatts/m^2,SoftwareType,DateUTC
2013-01-25 00:02:00,63.0,56.0,-100.00,South,184,10.0,18.0,78,0.00,,,0.00,0.000000,,2013-01-25 06:02:00,
2013-01-25 00:11:00,63.0,56.0,-100.00,South,184,10.0,18.0,78,0.00,,,0.00,0.000000,,2013-01-25 06:11:00,
2013-01-25 00:21:00,63.0,56.0,-100.00,South,184,10.0,18.0,78,0.00,,,0.00,0.000000,,2013-01-25 06:21:00,
2013-01-25 00:32:00,63.0,56.0,-100.00,South,184,10.0,18.0,78,0.00,,,0.00,0.000000,,2013-01-25 06:32:00,
2013-01-25 00:52:00,62.0,58.0,-100.00,SSW,197,10.0,16.0,86,0.00,,,0.00,0.000000,,2013-01-25 06:52:00,
2013-01-25 01:02:00,62.0,58.0,-100.00,SSW,197,10.0,16.0,86,0.00,,,0.00,0.000000,,2013-01-25 07:02:00,
2013-01-25 01:11:00,62.0,58.0,-100.00,SSW,197,10.0,16.0,86,0.00,,,0.00,0.000000,,2013-01-25 07:11:00,
2013-01-25 01:21:00,62.0,58.0,-100.00,SSW,197,10.0,16.0,86,0.00,,,0.00,0.000000,,2013-01-25 07:21:00,
2013-01-25 01:32:00,62.0,58.0,-100.00,SSW,197,10.0,16.0,86,0.00,,,0.00,0.000000,,2013-01-25 07:32:00,
2013-01-25 02:02:00,61.0,57.0,-100.00,SSW,197,9.0,14.0,88,0.00,,,0.00,0.000000,,2013-01-25 08:02:00,
2013-01-25 02:11:00,61.0,57.0,-100.00,SSW,197,9.0,14.0,88,0.00,,,0.00,0.000000,,2013-01-25 08:11:00,
2013-01-25 02:21:00,61.0,57.0,-100.00,SSW,197,9.0,14.0,88,0.00,,,0.00,0.000000,,2013-01-25 08:21:00,
2013-01-25 02:32:00,61.0,57.0,-100.00,SSW,197,9.0,14.0,88,0.00,,,0.00,0.000000,,2013-01-25 08:32:00,
2013-01-25 03:02:00,62.0,58.0,-100.00,SSW,199,14.0,20.0,88,0.00,,,0.00,0.000000,,2013-01-25 09:02:00,
2013-01-25 03:11:00,62.0,58.0,-100.00,SSW,199,14.0,20.0,88,0.00,,,0.00,0.000000,,2013-01-25 09:11:00,
2013-01-25 03:21:00,62.0,58.0,-100.00,SSW,199,14.0,20.0,88,0.00,,,0.00,0.000000,,2013-01-25 09:21:00,
2013-01-25 03:31:00,62.0,58.0,-100.00,SSW,199,14.0,20.0,88,0.00,,,0.00,0.000000,,2013-01-25 09:31:00,
2013-01-25 04:02:00,60.0,58.0,-100.00,South,189,12.0,19.0,94,0.00,,,0.00,0.000000,,2013-01-25 10:02:00,
2013-01-25 04:12:00,60.0,58.0,-100.00,South,189,12.0,19.0,94,0.00,,,0.00,0.000000,,2013-01-25 10:12:00,
2013-01-25 04:21:00,60.0,58.0,-100.00,South,189,12.0,19.0,94,0.00,,,0.00,0.000000,,2013-01-25 10:21:00,
2013-01-25 04:32:00,60.0,58.0,-100.00,South,189,12.0,19.0,94,0.00,,,0.00,0.000000,,2013-01-25 10:32:00,
2013-01-25 04:52:00,60.0,59.0,-100.00,SSW,192,9.0,15.0,96,0.00,,,0.00,0.000000,,2013-01-25 10:52:00,
2013-01-25 05:02:00,60.0,59.0,-100.00,SSW,192,9.0,15.0,96,0.00,,,0.00,0.000000,,2013-01-25 11:02:00,
2013-01-25 05:11:00,60.0,59.0,-100.00,SSW,192,9.0,15.0,96,0.00,,,0.00,0.000000,,2013-01-25 11:11:00,
2013-01-25 05:22:00,60.0,59.0,-100.00,SSW,192,9.0,15.0,96,0.00,,,0.00,0.000000,,2013-01-25 11:22:00,
2013-01-25 05:32:00,60.0,59.0,-100.00,SSW,192,9.0,15.0,96,0.00,,,0.00,0.000000,,2013-01-25 11:32:00,
2013-01-25 05:52:00,61.0,60.0,-100.00,SSW,201,12.0,18.0,96,0.00,,,0.00,0.000000,,2013-01-25 11:52:00,
2013-01-25 06:02:00,61.0,60.0,-100.00,SSW,201,12.0,18.0,96,0.00,,,0.00,0.000000,,2013-01-25 12:02:00,
2013-01-25 06:11:00,61.0,60.0,-100.00,SSW,201,12.0,18.0,96,0.00,,,0.00,0.000000,,2013-01-25 12:11:00,
2013-01-25 06:22:00,61.0,60.0,-100.00,SSW,201,12.0,18.0,96,0.00,,,0.00,0.000000,,2013-01-25 12:22:00,
2013-01-25 06:32:00,61.0,60.0,-100.00,SSW,201,12.0,18.0,96,0.00,,,0.00,0.000000,,2013-01-25 12:32:00,
2013-01-25 06:53:00,61.0,60.0,-100.00,SSW,193,11.0,16.0,96,0.00,,,0.00,0.000000,,2013-01-25 12:53:00,
2013-01-25 07:02:00,61.0,60.0,-100.00,SSW,193,11.0,16.0,96,0.00,,,0.00,0.000000,,2013-01-25 13:02:00,
2013-01-25 07:12:00,61.0,60.0,-100.00,SSW,193,11.0,16.0,96,0.00,,,0.00,0.000000,,2013-01-25 13:12:00,
2013-01-25 07:22:00,61.0,60.0,-100.00,SSW,193,11.0,16.0,96,0.00,,,0.00,0.000000,,2013-01-25 13:22:00,
2013-01-25 07:32:00,61.0,60.0,-100.00,SSW,193,11.0,16.0,96,0.00,,,0.00,0.000000,,2013-01-25 13:32:00,
2013-01-25 08:03:00,60.0,59.0,-100.00,South,190,10.0,16.0,96,0.00,,,0.00,2.000000,,2013-01-25 14:03:00,
2013-01-25 08:12:00,60.0,59.0,-100.00,South,190,10.0,16.0,96,0.00,,,0.00,2.000000,,2013-01-25 14:12:00,
2013-01-25 08:23:00,60.0,59.0,-100.00,South,190,10.0,16.0,96,0.00,,,0.00,2.000000,,2013-01-25 14:23:00,
2013-01-25 08:32:00,60.0,59.0,-100.00,South,190,10.0,16.0,96,0.00,,,0.00,2.000000,,2013-01-25 14:32:00,
2013-01-25 09:02:00,61.0,59.0,-100.00,SSW,193,10.0,16.0,94,0.00,,,0.00,47.000000,,2013-01-25 15:02:00,
2013-01-25 09:12:00,61.0,59.0,-100.00,SSW,193,10.0,16.0,94,0.00,,,0.00,47.000000,,2013-01-25 15:12:00,
2013-01-25 09:22:00,61.0,59.0,-100.00,SSW,193,10.0,16.0,94,0.00,,,0.00,47.000000,,2013-01-25 15:22:00,
2013-01-25 09:32:00,61.0,59.0,-100.00,SSW,193,10.0,16.0,94,0.00,,,0.00,47.000000,,2013-01-25 15:32:00,
2013-01-25 10:03:00,63.0,60.0,-100.00,South,191,10.0,18.0,89,0.00,,,0.00,134.000000,,2013-01-25 16:03:00,
2013-01-25 10:12:00,63.0,60.0,-100.00,South,191,10.0,18.0,89,0.00,,,0.00,134.000000,,2013-01-25 16:12:00,
2013-01-25 10:22:00,63.0,60.0,-100.00,South,191,10.0,18.0,89,0.00,,,0.00,134.000000,,2013-01-25 16:22:00,
2013-01-25 10:32:00,63.0,60.0,-100.00,South,191,10.0,18.0,89,0.00,,,0.00,134.000000,,2013-01-25 16:32:00,
2013-01-25 11:02:00,67.0,60.0,-100.00,South,190,12.0,21.0,78,0.00,,,0.00,292.000000,,2013-01-25 17:02:00,
2013-01-25 11:12:00,67.0,60.0,-100.00,South,190,12.0,21.0,78,0.00,,,0.00,292.000000,,2013-01-25 17:12:00,
2013-01-25 11:22:00,67.0,60.0,-100.00,South,190,12.0,21.0,78,0.00,,,0.00,292.000000,,2013-01-25 17:22:00,
2013-01-25 11:32:00,67.0,60.0,-100.00,South,190,12.0,21.0,78,0.00,,,0.00,292.000000,,2013-01-25 17:32:00,
2013-01-25 12:03:00,72.0,60.0,-100.00,SSW,198,11.0,18.0,66,0.00,,,0.00,541.000000,,2013-01-25 18:03:00,
2013-01-25 12:12:00,72.0,60.0,-100.00,SSW,198,11.0,18.0,66,0.00,,,0.00,541.000000,,2013-01-25 18:12:00,
2013-01-25 12:23:00,72.0,60.0,-100.00,SSW,198,11.0,18.0,66,0.00,,,0.00,541.000000,,2013-01-25 18:23:00,
2013-01-25 12:33:00,72.0,60.0,-100.00,SSW,198,11.0,18.0,66,0.00,,,0.00,541.000000,,2013-01-25 18:33:00,
2013-01-25 13:03:00,75.0,59.0,-100.00,SSW,194,7.0,20.0,58,0.00,,,0.00,610.000000,,2013-01-25 19:03:00,
2013-01-25 13:12:00,75.0,59.0,-100.00,SSW,194,7.0,20.0,58,0.00,,,0.00,610.000000,,2013-01-25 19:12:00,
2013-01-25 13:22:00,75.0,59.0,-100.00,SSW,194,7.0,20.0,58,0.00,,,0.00,610.000000,,2013-01-25 19:22:00,
2013-01-25 13:32:00,75.0,59.0,-100.00,SSW,194,7.0,20.0,58,0.00,,,0.00,610.000000,,2013-01-25 19:32:00,
2013-01-25 14:03:00,77.0,58.0,-100.00,SSW,200,10.0,18.0,52,0.00,,,-99.99,624.000000,,2013-01-25 20:03:00,
2013-01-25 14:12:00,77.0,58.0,-100.00,SSW,200,10.0,18.0,52,0.00,,,-99.99,624.000000,,2013-01-25 20:12:00,
2013-01-25 14:22:00,77.0,58.0,-100.00,SSW,200,10.0,18.0,52,0.00,,,-99.99,624.000000,,2013-01-25 20:22:00,
2013-01-25 14:32:00,77.0,58.0,-100.00,SSW,200,10.0,18.0,52,0.00,,,-99.99,624.000000,,2013-01-25 20:32:00,
2013-01-25 15:02:00,79.0,57.0,-100.00,South,171,9.0,16.0,47,0.00,,,0.00,575.000000,,2013-01-25 21:02:00,
2013-01-25 15:12:00,79.0,57.0,-100.00,South,171,9.0,16.0,47,0.00,,,0.00,575.000000,,2013-01-25 21:12:00,
2013-01-25 15:23:00,79.0,57.0,-100.00,South,171,9.0,16.0,47,0.00,,,0.00,575.000000,,2013-01-25 21:23:00,
2013-01-25 15:32:00,79.0,57.0,-100.00,South,171,9.0,16.0,47,0.00,,,0.00,575.000000,,2013-01-25 21:32:00,
2013-01-25 16:03:00,80.0,56.0,-100.00,South,181,11.0,19.0,44,0.00,,,0.00,479.000000,,2013-01-25 22:03:00,
2013-01-25 16:12:00,80.0,56.0,-100.00,South,181,11.0,19.0,44,0.00,,,0.00,479.000000,,2013-01-25 22:12:00,
2013-01-25 16:22:00,80.0,56.0,-100.00,South,181,11.0,19.0,44,0.00,,,0.00,479.000000,,2013-01-25 22:22:00,
2013-01-25 16:32:00,80.0,56.0,-100.00,South,181,11.0,19.0,44,0.00,,,0.00,479.000000,,2013-01-25 22:32:00,
2013-01-25 17:02:00,77.0,55.0,-100.00,South,182,10.0,20.0,47,0.00,,,0.00,262.000000,,2013-01-25 23:02:00,
2013-01-25 17:12:00,77.0,55.0,-100.00,South,182,10.0,20.0,47,0.00,,,0.00,262.000000,,2013-01-25 23:12:00,
2013-01-25 17:22:00,77.0,55.0,-100.00,South,182,10.0,20.0,47,0.00,,,0.00,262.000000,,2013-01-25 23:22:00,
2013-01-25 17:32:00,77.0,55.0,-100.00,South,182,10.0,20.0,47,0.00,,,0.00,262.000000,,2013-01-25 23:32:00,
2013-01-25 18:02:00,75.0,56.0,-100.00,South,173,5.0,15.0,52,0.00,,,0.00,120.000000,,2013-01-26 00:02:00,
2013-01-25 18:11:00,75.0,56.0,-100.00,South,173,5.0,15.0,52,0.00,,,0.00,120.000000,,2013-01-26 00:11:00,
2013-01-25 18:22:00,75.0,56.0,-100.00,South,173,5.0,15.0,52,0.00,,,0.00,120.000000,,2013-01-26 00:22:00,
2013-01-25 18:32:00,75.0,56.0,-100.00,South,173,5.0,15.0,52,0.00,,,0.00,120.000000,,2013-01-26 00:32:00,
2013-01-25 18:53:00,63.0,51.0,-100.00,NE,36,10.0,16.0,66,0.00,,,0.00,12.000000,,2013-01-26 00:53:00,
2013-01-25 19:02:00,63.0,51.0,-100.00,NE,36,10.0,16.0,66,0.00,,,0.00,12.000000,,2013-01-26 01:02:00,
2013-01-25 19:11:00,63.0,51.0,-100.00,NE,36,10.0,16.0,66,0.00,,,0.00,12.000000,,2013-01-26 01:11:00,
2013-01-25 19:22:00,63.0,51.0,-100.00,NE,36,10.0,16.0,66,0.00,,,0.00,12.000000,,2013-01-26 01:22:00,
2013-01-25 19:32:00,63.0,51.0,-100.00,NE,36,10.0,16.0,66,0.00,,,0.00,12.000000,,2013-01-26 01:32:00,
2013-01-25 20:01:00,60.0,51.0,-100.00,NE,34,9.0,19.0,72,0.00,,,0.00,0.000000,,2013-01-26 02:01:00,
2013-01-25 20:11:00,60.0,51.0,-100.00,NE,34,9.0,19.0,72,0.00,,,0.00,0.000000,,2013-01-26 02:11:00,
2013-01-25 20:22:00,60.0,51.0,-100.00,NE,34,9.0,19.0,72,0.00,,,0.00,0.000000,,2013-01-26 02:22:00,
2013-01-25 20:32:00,60.0,51.0,-100.00,NE,34,9.0,19.0,72,0.00,,,0.00,0.000000,,2013-01-26 02:32:00,
2013-01-25 20:52:00,57.0,50.0,-100.00,NNE,33,13.0,19.0,78,0.00,,,0.00,0.000000,,2013-01-26 02:52:00,
2013-01-25 21:02:00,57.0,50.0,-100.00,NNE,33,13.0,19.0,78,0.00,,,0.00,0.000000,,2013-01-26 03:02:00,
2013-01-25 21:11:00,57.0,50.0,-100.00,NNE,33,13.0,19.0,78,0.00,,,0.00,0.000000,,2013-01-26 03:11:00,
2013-01-25 21:22:00,57.0,50.0,-100.00,NNE,33,13.0,19.0,78,0.00,,,0.00,0.000000,,2013-01-26 03:22:00,
2013-01-25 21:31:00,57.0,50.0,-100.00,NNE,33,13.0,19.0,78,0.00,,,0.00,0.000000,,2013-01-26 03:31:00,
2013-01-25 22:02:00,53.0,46.0,-100.00,NE,34,13.0,20.0,78,0.00,,,0.00,0.000000,,2013-01-26 04:02:00,
2013-01-25 22:12:00,53.0,46.0,-100.00,NE,34,13.0,20.0,78,0.00,,,0.00,0.000000,,2013-01-26 04:12:00,
2013-01-25 22:21:00,53.0,46.0,-100.00,NE,34,13.0,20.0,78,0.00,,,0.00,0.000000,,2013-01-26 04:21:00,
2013-01-25 22:32:00,53.0,46.0,-100.00,NE,34,13.0,20.0,78,0.00,,,0.00,0.000000,,2013-01-26 04:32:00,
2013-01-25 23:03:00,50.0,44.0,-100.00,NE,35,10.0,17.0,80,0.00,,,0.00,0.000000,,2013-01-26 05:03:00,
2013-01-25 23:12:00,50.0,44.0,-100.00,NE,35,10.0,17.0,80,0.00,,,0.00,0.000000,,2013-01-26 05:12:00,
2013-01-25 23:23:00,50.0,44.0,-100.00,NE,35,10.0,17.0,80,0.00,,,0.00,0.000000,,2013-01-26 05:23:00,
2013-01-25 23:33:00,50.0,44.0,-100.00,NE,35,10.0,17.0,80,0.00,,,0.00,0.000000,,2013-01-26 05:33:00,